createdAt,value
2016-07-10T00:00:50.545Z,0
2016-07-10T00:01:50.570Z,0
2016-07-10T00:02:50.590Z,0
2016-07-10T00:03:50.604Z,0
2016-07-10T00:04:50.639Z,0
2016-07-10T00:05:50.662Z,0
2016-07-10T00:06:50.674Z,0
2016-07-10T00:07:50.688Z,0
2016-07-10T00:08:50.715Z,0
2016-07-10T00:09:50.750Z,0
2016-07-10T00:10:50.753Z,0
2016-07-10T00:11:50.792Z,0
2016-07-10T00:12:50.805Z,0
2016-07-10T00:13:50.833Z,0
2016-07-10T00:14:50.859Z,0
2016-07-10T00:15:50.870Z,0
2016-07-10T00:16:50.888Z,0
2016-07-10T00:17:50.900Z,0
2016-07-10T00:18:50.937Z,0
2016-07-10T00:19:50.946Z,0
2016-07-10T00:20:50.972Z,0
2016-07-10T00:21:50.988Z,0
2016-07-10T00:22:51.013Z,0
2016-07-10T00:23:51.039Z,0
2016-07-10T00:24:51.059Z,0
2016-07-10T00:25:51.076Z,0
2016-07-10T00:26:51.096Z,0
2016-07-10T00:27:51.113Z,0
2016-07-10T00:28:51.143Z,0
2016-07-10T00:29:51.159Z,0
2016-07-10T00:30:51.179Z,0
2016-07-10T00:31:51.198Z,0
2016-07-10T00:32:51.226Z,0
2016-07-10T00:33:51.235Z,0
2016-07-10T00:34:51.267Z,0
2016-07-10T00:35:51.290Z,0
2016-07-10T00:36:51.307Z,0
2016-07-10T00:37:51.340Z,0
2016-07-10T00:38:51.342Z,0
2016-07-10T00:39:51.377Z,0
2016-07-10T00:40:51.395Z,0
2016-07-10T00:41:51.422Z,0
2016-07-10T00:42:51.473Z,0
2016-07-10T00:43:51.451Z,0
2016-07-10T00:44:51.470Z,0
2016-07-10T00:45:51.489Z,0
2016-07-10T00:46:51.526Z,0
2016-07-10T00:47:51.531Z,0
2016-07-10T00:48:51.563Z,0
2016-07-10T00:49:51.575Z,0
2016-07-10T00:50:51.596Z,0
2016-07-10T00:51:51.618Z,0
2016-07-10T00:52:51.649Z,0
2016-07-10T00:53:51.654Z,0
2016-07-10T00:54:51.681Z,0
2016-07-10T00:55:51.716Z,0
2016-07-10T00:56:51.724Z,0
2016-07-10T00:57:51.749Z,0
2016-07-10T00:58:51.770Z,0
2016-07-10T00:59:51.793Z,0
2016-07-10T01:00:51.799Z,0
2016-07-10T01:01:51.842Z,0
2016-07-10T01:02:51.856Z,0
2016-07-10T01:03:51.870Z,0
2016-07-10T01:04:51.889Z,0
2016-07-10T01:05:51.906Z,0
2016-07-10T01:06:51.940Z,0
2016-07-10T01:07:51.956Z,0
2016-07-10T01:08:51.976Z,0
2016-07-10T01:09:51.998Z,0
2016-07-10T01:10:52.022Z,0
2016-07-10T01:11:52.035Z,0
2016-07-10T01:12:52.060Z,0
2016-07-10T01:13:52.079Z,0
2016-07-10T01:14:52.104Z,0
2016-07-10T01:15:52.115Z,0
2016-07-10T01:16:52.152Z,0
2016-07-10T01:17:52.171Z,0
2016-07-10T01:18:52.190Z,0
2016-07-10T01:19:52.208Z,0
2016-07-10T01:20:52.239Z,0
2016-07-10T01:21:52.260Z,0
2016-07-10T01:22:52.277Z,0
2016-07-10T01:23:52.284Z,0
2016-07-10T01:24:52.323Z,0
2016-07-10T01:25:52.336Z,0
2016-07-10T01:26:52.345Z,0
2016-07-10T01:27:52.390Z,0
2016-07-10T01:28:52.397Z,0
2016-07-10T01:29:52.417Z,0
2016-07-10T01:30:52.436Z,0
2016-07-10T01:31:52.458Z,0
2016-07-10T01:32:52.480Z,0
2016-07-10T01:33:52.508Z,0
2016-07-10T01:34:52.520Z,0
2016-07-10T01:35:52.552Z,0
2016-07-10T01:36:52.565Z,0
2016-07-10T01:37:52.579Z,0
2016-07-10T01:38:52.614Z,0
2016-07-10T01:39:52.616Z,0
2016-07-10T01:40:52.648Z,0
2016-07-10T01:41:52.669Z,0
2016-07-10T01:42:52.686Z,0
2016-07-10T01:43:52.713Z,0
2016-07-10T01:44:52.732Z,0
2016-07-10T01:45:52.744Z,0
2016-07-10T01:46:52.770Z,0
2016-07-10T01:47:52.789Z,0
2016-07-10T01:48:52.819Z,0
2016-07-10T01:49:52.847Z,0
2016-07-10T01:50:52.846Z,0
2016-07-10T01:51:52.878Z,0
2016-07-10T01:52:52.900Z,0
2016-07-10T01:53:52.924Z,0
2016-07-10T01:54:52.948Z,0
2016-07-10T01:55:52.952Z,0
2016-07-10T01:56:52.981Z,0
2016-07-10T01:57:52.992Z,0
2016-07-10T01:58:53.037Z,0
2016-07-10T01:59:53.045Z,0
2016-07-10T02:00:53.077Z,0
2016-07-10T02:01:53.089Z,0
2016-07-10T02:02:53.120Z,0
2016-07-10T02:03:53.131Z,0
2016-07-10T02:04:53.158Z,0
2016-07-10T02:05:53.158Z,0
2016-07-10T02:06:53.185Z,0
2016-07-10T02:07:53.201Z,0
2016-07-10T02:08:53.237Z,0
2016-07-10T02:09:53.235Z,0
2016-07-10T02:10:53.294Z,0
2016-07-10T02:11:53.286Z,0
2016-07-10T02:12:53.317Z,0
2016-07-10T02:13:53.336Z,0
2016-07-10T02:14:53.350Z,0
2016-07-10T02:15:53.384Z,0
2016-07-10T02:16:53.393Z,0
2016-07-10T02:17:53.413Z,0
2016-07-10T02:18:53.433Z,0
2016-07-10T02:19:53.448Z,0
2016-07-10T02:20:53.482Z,0
2016-07-10T02:21:53.505Z,0
2016-07-10T02:22:53.521Z,0
2016-07-10T02:23:53.537Z,0
2016-07-10T02:24:53.562Z,0
2016-07-10T02:25:53.586Z,0
2016-07-10T02:26:53.608Z,0
2016-07-10T02:27:53.622Z,0
2016-07-10T02:28:53.654Z,0
2016-07-10T02:29:53.666Z,0
2016-07-10T02:30:53.674Z,0
2016-07-10T02:31:53.708Z,0
2016-07-10T02:32:53.717Z,0
2016-07-10T02:33:53.751Z,0
2016-07-10T02:34:53.768Z,0
2016-07-10T02:35:53.785Z,0
2016-07-10T02:36:53.816Z,0
2016-07-10T02:37:53.848Z,0
2016-07-10T02:38:53.856Z,0
2016-07-10T02:39:53.869Z,0
2016-07-10T02:40:53.897Z,0
2016-07-10T02:41:53.917Z,0
2016-07-10T02:42:53.970Z,0
2016-07-10T02:43:54.008Z,0
2016-07-10T02:44:54.038Z,0
2016-07-10T02:45:54.048Z,0
2016-07-10T02:46:54.014Z,0
2016-07-10T02:47:54.041Z,0
2016-07-10T02:48:54.054Z,0
2016-07-10T02:49:54.092Z,0
2016-07-10T02:50:54.101Z,0
2016-07-10T02:51:54.129Z,0
2016-07-10T02:52:54.181Z,0
2016-07-10T02:53:54.218Z,0
2016-07-10T02:54:54.236Z,0
2016-07-10T02:55:54.198Z,0
2016-07-10T02:56:54.224Z,0
2016-07-10T02:57:54.252Z,0
2016-07-10T02:58:54.267Z,0
2016-07-10T02:59:54.288Z,0
2016-07-10T03:00:54.305Z,0
2016-07-10T03:01:54.334Z,0
2016-07-10T03:02:54.344Z,0
2016-07-10T03:03:54.384Z,0
2016-07-10T03:04:54.398Z,0
2016-07-10T03:05:54.409Z,0
2016-07-10T03:06:54.427Z,0
2016-07-10T03:07:54.450Z,0
2016-07-10T03:08:54.479Z,0
2016-07-10T03:09:54.503Z,0
2016-07-10T03:10:54.503Z,0
2016-07-10T03:11:54.542Z,0
2016-07-10T03:12:54.568Z,0
2016-07-10T03:13:54.571Z,0
2016-07-10T03:14:54.594Z,0
2016-07-10T03:15:54.619Z,0
2016-07-10T03:16:54.626Z,0
2016-07-10T03:17:54.660Z,0
2016-07-10T03:18:54.674Z,0
2016-07-10T03:19:54.708Z,5
2016-07-10T03:20:54.728Z,5
2016-07-10T03:21:54.735Z,5
2016-07-10T03:22:54.774Z,5
2016-07-10T03:23:54.783Z,5
2016-07-10T03:24:54.806Z,5
2016-07-10T03:25:54.827Z,5
2016-07-10T03:26:54.849Z,5
2016-07-10T03:27:54.867Z,5
2016-07-10T03:28:54.890Z,5
2016-07-10T03:29:54.896Z,10
2016-07-10T03:30:54.934Z,10
2016-07-10T03:31:54.941Z,10
2016-07-10T03:32:54.968Z,10
2016-07-10T03:33:54.978Z,10
2016-07-10T03:34:55.015Z,10
2016-07-10T03:35:55.023Z,10
2016-07-10T03:36:55.048Z,15
2016-07-10T03:37:55.077Z,15
2016-07-10T03:38:55.087Z,15
2016-07-10T03:39:55.113Z,15
2016-07-10T03:40:55.149Z,15
2016-07-10T03:41:55.154Z,20
2016-07-10T03:42:55.183Z,20
2016-07-10T03:43:55.198Z,20
2016-07-10T03:44:55.211Z,20
2016-07-10T03:45:55.246Z,20
2016-07-10T03:46:55.260Z,25
2016-07-10T03:47:55.275Z,25
2016-07-10T03:48:55.297Z,25
2016-07-10T03:49:55.316Z,25
2016-07-10T03:50:55.339Z,25
2016-07-10T03:51:55.361Z,30
2016-07-10T03:52:55.388Z,30
2016-07-10T03:53:55.396Z,30
2016-07-10T03:54:55.425Z,30
2016-07-10T03:55:55.434Z,30
2016-07-10T03:56:55.472Z,30
2016-07-10T03:57:55.482Z,35
2016-07-10T03:58:55.505Z,35
2016-07-10T03:59:55.524Z,35
2016-07-10T04:00:55.541Z,35
2016-07-10T04:01:55.564Z,35
2016-07-10T04:02:55.587Z,35
2016-07-10T04:03:55.608Z,35
2016-07-10T04:04:55.621Z,40
2016-07-10T04:05:55.645Z,40
2016-07-10T04:06:55.667Z,40
2016-07-10T04:07:55.707Z,45
2016-07-10T04:08:55.732Z,45
2016-07-10T04:09:55.734Z,45
2016-07-10T04:10:55.754Z,45
2016-07-10T04:11:55.794Z,45
2016-07-10T04:12:55.803Z,50
2016-07-10T04:13:55.825Z,50
2016-07-10T04:14:55.837Z,50
2016-07-10T04:15:55.855Z,50
2016-07-10T04:16:55.883Z,50
2016-07-10T04:17:55.888Z,50
2016-07-10T04:18:55.928Z,50
2016-07-10T04:19:55.941Z,55
2016-07-10T04:20:55.980Z,55
2016-07-10T04:21:55.983Z,55
2016-07-10T04:22:56.009Z,55
2016-07-10T04:23:56.022Z,50
2016-07-10T04:24:56.049Z,55
2016-07-10T04:25:56.071Z,50
2016-07-10T04:26:56.086Z,50
2016-07-10T04:27:56.102Z,55
2016-07-10T04:28:56.125Z,50
2016-07-10T04:29:56.154Z,55
2016-07-10T04:30:56.173Z,55
2016-07-10T04:31:56.206Z,55
2016-07-10T04:32:56.236Z,55
2016-07-10T04:33:56.251Z,55
2016-07-10T04:34:56.258Z,55
2016-07-10T04:35:56.277Z,60
2016-07-10T04:36:56.311Z,60
2016-07-10T04:37:56.331Z,60
2016-07-10T04:38:56.342Z,65
2016-07-10T04:39:56.371Z,65
2016-07-10T04:40:56.382Z,65
2016-07-10T04:41:56.404Z,70
2016-07-10T04:42:56.433Z,70
2016-07-10T04:43:56.451Z,75
2016-07-10T04:44:56.470Z,75
2016-07-10T04:45:56.487Z,80
2016-07-10T04:46:56.522Z,80
2016-07-10T04:47:56.533Z,85
2016-07-10T04:48:56.553Z,85
2016-07-10T04:49:56.577Z,85
2016-07-10T04:50:56.602Z,85
2016-07-10T04:51:56.624Z,85
2016-07-10T04:52:56.630Z,85
2016-07-10T04:53:56.664Z,85
2016-07-10T04:54:56.680Z,85
2016-07-10T04:55:56.697Z,85
2016-07-10T04:56:56.742Z,90
2016-07-10T04:57:56.740Z,90
2016-07-10T04:58:56.772Z,90
2016-07-10T04:59:56.780Z,90
2016-07-10T05:00:56.812Z,90
2016-07-10T05:01:56.832Z,90
2016-07-10T05:02:56.858Z,90
2016-07-10T05:03:56.860Z,90
2016-07-10T05:04:56.898Z,90
2016-07-10T05:05:56.911Z,90
2016-07-10T05:06:56.946Z,90
2016-07-10T05:07:56.957Z,90
2016-07-10T05:08:56.986Z,90
2016-07-10T05:09:56.990Z,90
2016-07-10T05:10:57.038Z,95
2016-07-10T05:11:57.044Z,95
2016-07-10T05:12:57.069Z,95
2016-07-10T05:13:57.080Z,95
2016-07-10T05:14:57.125Z,100
2016-07-10T05:15:57.140Z,100
2016-07-10T05:16:57.140Z,100
2016-07-10T05:17:57.185Z,95
2016-07-10T05:18:57.204Z,100
2016-07-10T05:19:57.233Z,105
2016-07-10T05:20:57.239Z,95
2016-07-10T05:21:57.256Z,100
2016-07-10T05:22:57.288Z,110
2016-07-10T05:23:57.308Z,105
2016-07-10T05:24:57.320Z,120
2016-07-10T05:25:57.345Z,120
2016-07-10T05:26:57.374Z,125
2016-07-10T05:27:57.390Z,125
2016-07-10T05:28:57.418Z,130
2016-07-10T05:29:57.429Z,140
2016-07-10T05:30:57.457Z,135
2016-07-10T05:31:57.481Z,135
2016-07-10T05:32:57.500Z,140
2016-07-10T05:33:57.516Z,140
2016-07-10T05:34:57.557Z,145
2016-07-10T05:35:57.567Z,150
2016-07-10T05:36:57.625Z,155
2016-07-10T05:37:57.626Z,160
2016-07-10T05:38:57.661Z,150
2016-07-10T05:39:57.654Z,150
2016-07-10T05:40:57.678Z,155
2016-07-10T05:41:57.715Z,160
2016-07-10T05:42:57.723Z,160
2016-07-10T05:43:57.746Z,135
2016-07-10T05:44:57.780Z,165
2016-07-10T05:45:57.787Z,140
2016-07-10T05:46:57.820Z,165
2016-07-10T05:47:57.838Z,165
2016-07-10T05:48:57.870Z,185
2016-07-10T05:49:57.879Z,190
2016-07-10T05:50:57.912Z,150
2016-07-10T05:51:57.926Z,150
2016-07-10T05:52:57.951Z,165
2016-07-10T05:53:57.960Z,170
2016-07-10T05:54:57.990Z,195
2016-07-10T05:55:58.014Z,190
2016-07-10T05:56:58.037Z,200
2016-07-10T05:57:58.058Z,205
2016-07-10T05:58:58.073Z,205
2016-07-10T05:59:58.099Z,195
2016-07-10T06:00:58.131Z,165
2016-07-10T06:01:58.157Z,175
2016-07-10T06:02:58.174Z,195
2016-07-10T06:03:58.190Z,180
2016-07-10T06:04:58.219Z,200
2016-07-10T06:05:58.251Z,185
2016-07-10T06:06:58.283Z,185
2016-07-10T06:07:58.282Z,215
2016-07-10T06:08:58.307Z,205
2016-07-10T06:09:58.334Z,210
2016-07-10T06:10:58.353Z,220
2016-07-10T06:11:58.390Z,220
2016-07-10T06:12:58.409Z,215
2016-07-10T06:13:58.425Z,215
2016-07-10T06:14:58.440Z,210
2016-07-10T06:15:58.473Z,220
2016-07-10T06:16:58.522Z,210
2016-07-10T06:17:58.515Z,170
2016-07-10T06:18:58.551Z,195
2016-07-10T06:19:58.569Z,210
2016-07-10T06:20:58.604Z,215
2016-07-10T06:21:58.607Z,195
2016-07-10T06:22:58.633Z,230
2016-07-10T06:23:58.665Z,230
2016-07-10T06:24:58.683Z,230
2016-07-10T06:25:58.706Z,225
2016-07-10T06:26:58.729Z,230
2016-07-10T06:27:58.768Z,225
2016-07-10T06:28:58.770Z,225
2016-07-10T06:29:58.820Z,230
2016-07-10T06:30:58.818Z,215
2016-07-10T06:31:58.856Z,225
2016-07-10T06:32:58.866Z,225
2016-07-10T06:33:58.898Z,220
2016-07-10T06:34:58.919Z,225
2016-07-10T06:35:58.955Z,210
2016-07-10T06:36:58.968Z,230
2016-07-10T06:37:58.994Z,230
2016-07-10T06:38:59.020Z,230
2016-07-10T06:39:59.037Z,230
2016-07-10T06:40:59.064Z,225
2016-07-10T06:41:59.099Z,230
2016-07-10T06:42:59.111Z,230
2016-07-10T06:43:59.144Z,230
2016-07-10T06:44:59.167Z,235
2016-07-10T06:45:59.199Z,230
2016-07-10T06:46:59.211Z,230
2016-07-10T06:47:59.239Z,235
2016-07-10T06:48:59.254Z,230
2016-07-10T06:49:59.281Z,230
2016-07-10T06:50:59.318Z,230
2016-07-10T06:51:59.332Z,225
2016-07-10T06:52:59.363Z,210
2016-07-10T06:53:59.375Z,220
2016-07-10T06:54:59.414Z,210
2016-07-10T06:55:59.427Z,210
2016-07-10T06:56:59.452Z,215
2016-07-10T06:57:59.478Z,220
2016-07-10T06:58:59.503Z,220
2016-07-10T06:59:59.532Z,215
2016-07-10T07:00:59.554Z,210
2016-07-10T07:01:59.579Z,210
2016-07-10T07:02:59.593Z,200
2016-07-10T07:03:59.628Z,170
2016-07-10T07:04:59.662Z,170
2016-07-10T07:05:59.674Z,170
2016-07-10T07:06:59.739Z,195
2016-07-10T07:07:59.717Z,205
2016-07-10T07:08:59.754Z,180
2016-07-10T07:09:59.765Z,195
2016-07-10T07:10:59.807Z,200
2016-07-10T07:11:59.815Z,190
2016-07-10T07:12:59.844Z,210
2016-07-10T07:13:59.871Z,195
2016-07-10T07:14:59.889Z,195
2016-07-10T07:15:59.925Z,200
2016-07-10T07:16:59.938Z,190
2016-07-10T07:17:59.974Z,230
2016-07-10T07:18:59.979Z,200
2016-07-10T07:20:00.024Z,200
2016-07-10T07:21:00.039Z,225
2016-07-10T07:22:00.074Z,180
2016-07-10T07:23:00.075Z,185
2016-07-10T07:24:00.108Z,205
2016-07-10T07:25:00.146Z,220
2016-07-10T07:26:00.155Z,220
2016-07-10T07:27:00.189Z,220
2016-07-10T07:28:00.208Z,215
2016-07-10T07:29:00.253Z,220
2016-07-10T07:30:00.262Z,220
2016-07-10T07:31:00.295Z,230
2016-07-10T07:32:00.316Z,225
2016-07-10T07:33:00.321Z,225
2016-07-10T07:34:00.366Z,225
2016-07-10T07:35:00.383Z,225
2016-07-10T07:36:00.406Z,225
2016-07-10T07:37:00.437Z,230
2016-07-10T07:38:00.450Z,225
2016-07-10T07:39:00.476Z,230
2016-07-10T07:40:00.499Z,230
2016-07-10T07:41:00.524Z,230
2016-07-10T07:42:00.542Z,205
2016-07-10T07:43:00.587Z,195
2016-07-10T07:44:00.593Z,185
2016-07-10T07:45:00.623Z,170
2016-07-10T07:46:00.647Z,165
2016-07-10T07:47:00.689Z,175
2016-07-10T07:48:00.698Z,180
2016-07-10T07:49:00.713Z,180
2016-07-10T07:50:00.743Z,175
2016-07-10T07:51:00.771Z,195
2016-07-10T07:52:00.800Z,180
2016-07-10T07:53:00.823Z,175
2016-07-10T07:54:00.831Z,180
2016-07-10T07:55:00.866Z,205
2016-07-10T07:56:00.879Z,185
2016-07-10T07:57:00.924Z,205
2016-07-10T07:58:00.936Z,180
2016-07-10T07:59:00.965Z,180
2016-07-10T08:00:00.992Z,210
2016-07-10T08:01:01.018Z,195
2016-07-10T08:02:01.026Z,180
2016-07-10T08:03:01.070Z,190
2016-07-10T08:04:01.089Z,180
2016-07-10T08:05:01.109Z,180
2016-07-10T08:06:01.137Z,195
2016-07-10T08:07:01.149Z,200
2016-07-10T08:08:01.187Z,215
2016-07-10T08:09:01.208Z,220
2016-07-10T08:10:01.244Z,215
2016-07-10T08:11:01.244Z,210
2016-07-10T08:12:01.279Z,215
2016-07-10T08:13:01.301Z,210
2016-07-10T08:14:01.337Z,210
2016-07-10T08:15:01.355Z,190
2016-07-10T08:16:01.371Z,210
2016-07-10T08:17:01.396Z,200
2016-07-10T08:18:01.425Z,215
2016-07-10T08:19:01.451Z,220
2016-07-10T08:20:01.472Z,215
2016-07-10T08:21:01.488Z,220
2016-07-10T08:22:01.529Z,225
2016-07-10T08:23:01.545Z,230
2016-07-10T08:24:01.581Z,220
2016-07-10T08:25:01.661Z,230
2016-07-10T08:26:01.619Z,210
2016-07-10T08:27:01.656Z,220
2016-07-10T08:28:01.663Z,215
2016-07-10T08:29:01.692Z,160
2016-07-10T08:30:01.710Z,215
2016-07-10T08:31:01.750Z,160
2016-07-10T08:32:01.764Z,170
2016-07-10T08:33:01.787Z,210
2016-07-10T08:34:01.810Z,210
2016-07-10T08:35:01.874Z,220
2016-07-10T08:36:01.863Z,220
2016-07-10T08:37:01.886Z,210
2016-07-10T08:38:01.928Z,200
2016-07-10T08:39:01.944Z,190
2016-07-10T08:40:01.967Z,185
2016-07-10T08:41:01.995Z,180
2016-07-10T08:42:02.028Z,180
2016-07-10T08:43:02.033Z,180
2016-07-10T08:44:02.063Z,195
2016-07-10T08:45:02.095Z,210
2016-07-10T08:46:02.169Z,215
2016-07-10T08:47:02.170Z,195
2016-07-10T08:48:02.166Z,200
2016-07-10T08:49:02.196Z,195
2016-07-10T08:50:02.257Z,200
2016-07-10T08:51:02.233Z,195
2016-07-10T08:52:02.258Z,195
2016-07-10T08:53:02.292Z,180
2016-07-10T08:54:02.315Z,190
2016-07-10T08:55:02.378Z,200
2016-07-10T08:56:02.378Z,205
2016-07-10T08:57:02.381Z,210
2016-07-10T08:58:02.456Z,210
2016-07-10T08:59:02.427Z,215
2016-07-10T09:00:02.454Z,210
2016-07-10T09:01:02.490Z,210
2016-07-10T09:02:02.512Z,210
2016-07-10T09:03:02.534Z,210
2016-07-10T09:04:02.569Z,205
2016-07-10T09:05:02.582Z,200
2016-07-10T09:06:02.606Z,210
2016-07-10T09:07:02.637Z,200
2016-07-10T09:08:02.661Z,200
2016-07-10T09:09:02.688Z,205
2016-07-10T09:10:02.711Z,210
2016-07-10T09:11:02.731Z,215
2016-07-10T09:12:02.767Z,215
2016-07-10T09:13:02.781Z,215
2016-07-10T09:14:02.810Z,220
2016-07-10T09:15:02.839Z,220
2016-07-10T09:16:02.856Z,225
2016-07-10T09:17:02.887Z,225
2016-07-10T09:18:02.910Z,230
2016-07-10T09:19:02.940Z,235
2016-07-10T09:20:02.956Z,210
2016-07-10T09:21:02.980Z,215
2016-07-10T09:22:03.009Z,215
2016-07-10T09:23:03.051Z,210
2016-07-10T09:24:03.060Z,195
2016-07-10T09:25:03.076Z,210
2016-07-10T09:26:03.110Z,195
2016-07-10T09:27:03.144Z,190
2016-07-10T09:28:03.167Z,195
2016-07-10T09:29:03.202Z,200
2016-07-10T09:30:03.206Z,205
2016-07-10T09:31:03.239Z,205
2016-07-10T09:32:03.258Z,180
2016-07-10T09:33:03.301Z,205
2016-07-10T09:34:03.320Z,175
2016-07-10T09:35:03.337Z,180
2016-07-10T09:36:03.352Z,210
2016-07-10T09:37:03.388Z,190
2016-07-10T09:38:03.423Z,165
2016-07-10T09:39:03.434Z,190
2016-07-10T09:40:03.468Z,210
2016-07-10T09:41:03.490Z,215
2016-07-10T09:42:03.508Z,175
2016-07-10T09:43:03.538Z,170
2016-07-10T09:44:03.570Z,215
2016-07-10T09:45:03.593Z,210
2016-07-10T09:46:03.608Z,180
2016-07-10T09:47:03.645Z,205
2016-07-10T09:48:03.668Z,210
2016-07-10T09:49:03.700Z,190
2016-07-10T09:50:03.714Z,180
2016-07-10T09:51:03.737Z,215
2016-07-10T09:52:03.765Z,230
2016-07-10T09:53:03.788Z,190
2016-07-10T09:54:03.827Z,195
2016-07-10T09:55:03.833Z,205
2016-07-10T09:56:03.873Z,205
2016-07-10T09:57:03.886Z,190
2016-07-10T09:58:03.918Z,220
2016-07-10T09:59:03.939Z,205
2016-07-10T10:00:03.972Z,210
2016-07-10T10:01:03.985Z,175
2016-07-10T10:02:04.009Z,175
2016-07-10T10:03:04.078Z,185
2016-07-10T10:04:04.072Z,200
2016-07-10T10:05:04.089Z,200
2016-07-10T10:06:04.111Z,195
2016-07-10T10:07:04.150Z,190
2016-07-10T10:08:04.161Z,225
2016-07-10T10:09:04.188Z,245
2016-07-10T10:10:04.223Z,230
2016-07-10T10:11:04.226Z,250
2016-07-10T10:12:04.271Z,250
2016-07-10T10:13:04.282Z,230
2016-07-10T10:14:04.322Z,195
2016-07-10T10:15:04.351Z,180
2016-07-10T10:16:04.356Z,230
2016-07-10T10:17:04.409Z,235
2016-07-10T10:18:04.417Z,210
2016-07-10T10:19:04.438Z,180
2016-07-10T10:20:04.468Z,180
2016-07-10T10:21:04.500Z,240
2016-07-10T10:22:04.515Z,185
2016-07-10T10:23:04.557Z,235
2016-07-10T10:24:04.566Z,235
2016-07-10T10:25:04.602Z,175
2016-07-10T10:26:04.625Z,195
2016-07-10T10:27:04.641Z,175
2016-07-10T10:28:04.669Z,250
2016-07-10T10:29:04.701Z,250
2016-07-10T10:30:04.730Z,190
2016-07-10T10:31:04.749Z,175
2016-07-10T10:32:04.779Z,175
2016-07-10T10:33:04.803Z,235
2016-07-10T10:34:04.825Z,210
2016-07-10T10:35:04.855Z,220
2016-07-10T10:36:04.875Z,175
2016-07-10T10:37:04.968Z,180
2016-07-10T10:38:04.928Z,220
2016-07-10T10:39:04.950Z,225
2016-07-10T10:40:04.994Z,205
2016-07-10T10:41:05.007Z,200
2016-07-10T10:42:05.041Z,205
2016-07-10T10:43:05.058Z,195
2016-07-10T10:44:05.086Z,215
2016-07-10T10:45:05.107Z,210
2016-07-10T10:46:05.136Z,205
2016-07-10T10:47:05.162Z,215
2016-07-10T10:48:05.194Z,240
2016-07-10T10:49:05.207Z,245
2016-07-10T10:50:05.223Z,225
2016-07-10T10:51:05.262Z,220
2016-07-10T10:52:05.289Z,225
2016-07-10T10:53:05.310Z,215
2016-07-10T10:54:05.330Z,215
2016-07-10T10:55:05.361Z,215
2016-07-10T10:56:05.388Z,225
2016-07-10T10:57:05.416Z,255
2016-07-10T10:58:05.451Z,255
2016-07-10T10:59:05.453Z,255
2016-07-10T11:00:05.495Z,190
2016-07-10T11:01:05.514Z,190
2016-07-10T11:02:05.546Z,185
2016-07-10T11:03:05.553Z,185
2016-07-10T11:04:05.598Z,200
2016-07-10T11:05:05.627Z,190
2016-07-10T11:06:05.634Z,200
2016-07-10T11:07:05.672Z,215
2016-07-10T11:08:05.690Z,255
2016-07-10T11:09:05.738Z,255
2016-07-10T11:10:05.751Z,255
2016-07-10T11:11:05.781Z,235
2016-07-10T11:12:05.815Z,210
2016-07-10T11:13:05.829Z,270
2016-07-10T11:14:05.847Z,270
2016-07-10T11:15:05.875Z,265
2016-07-10T11:16:05.902Z,270
2016-07-10T11:17:05.923Z,270
2016-07-10T11:18:05.947Z,270
2016-07-10T11:19:05.974Z,270
2016-07-10T11:20:06.011Z,265
2016-07-10T11:21:06.031Z,265
2016-07-10T11:22:06.056Z,270
2016-07-10T11:23:06.086Z,270
2016-07-10T11:24:06.111Z,275
2016-07-10T11:25:06.121Z,280
2016-07-10T11:26:06.158Z,280
2016-07-10T11:27:06.202Z,285
2016-07-10T11:28:06.206Z,290
2016-07-10T11:29:06.243Z,295
2016-07-10T11:30:06.270Z,300
2016-07-10T11:31:06.291Z,310
2016-07-10T11:32:06.318Z,315
2016-07-10T11:33:06.338Z,325
2016-07-10T11:34:06.374Z,330
2016-07-10T11:35:06.402Z,310
2016-07-10T11:36:06.424Z,300
2016-07-10T11:37:06.450Z,310
2016-07-10T11:38:06.485Z,325
2016-07-10T11:39:06.505Z,335
2016-07-10T11:40:06.524Z,335
2016-07-10T11:41:06.564Z,340
2016-07-10T11:42:06.577Z,325
2016-07-10T11:43:06.607Z,325
2016-07-10T11:44:06.642Z,320
2016-07-10T11:45:06.668Z,355
2016-07-10T11:46:06.703Z,340
2016-07-10T11:47:06.706Z,360
2016-07-10T11:48:06.749Z,355
2016-07-10T11:49:06.758Z,355
2016-07-10T11:50:06.793Z,365
2016-07-10T11:51:06.816Z,365
2016-07-10T11:52:06.854Z,365
2016-07-10T11:53:06.881Z,365
2016-07-10T11:54:06.904Z,365
2016-07-10T11:55:06.928Z,360
2016-07-10T11:56:06.952Z,365
2016-07-10T11:57:07.008Z,365
2016-07-10T11:58:07.008Z,360
2016-07-10T11:59:07.045Z,335
2016-07-10T12:00:07.067Z,330
2016-07-10T12:01:07.103Z,340
2016-07-10T12:02:07.124Z,310
2016-07-10T12:03:07.172Z,300
2016-07-10T12:04:07.185Z,305
2016-07-10T12:05:07.213Z,305
2016-07-10T12:06:07.231Z,300
2016-07-10T12:07:07.251Z,310
2016-07-10T12:08:07.308Z,315
2016-07-10T12:09:07.325Z,320
2016-07-10T12:10:07.340Z,345
2016-07-10T12:11:07.372Z,355
2016-07-10T12:12:07.404Z,365
2016-07-10T12:13:07.427Z,335
2016-07-10T12:14:07.450Z,340
2016-07-10T12:15:07.487Z,355
2016-07-10T12:16:07.502Z,370
2016-07-10T12:17:07.534Z,365
2016-07-10T12:18:07.563Z,365
2016-07-10T12:19:07.581Z,370
2016-07-10T12:20:07.623Z,355
2016-07-10T12:21:07.636Z,335
2016-07-10T12:22:07.668Z,320
2016-07-10T12:23:07.700Z,290
2016-07-10T12:24:07.735Z,275
2016-07-10T12:25:07.768Z,260
2016-07-10T12:26:07.787Z,260
2016-07-10T12:27:07.803Z,250
2016-07-10T12:28:07.842Z,235
2016-07-10T12:29:07.875Z,225
2016-07-10T12:30:07.888Z,220
2016-07-10T12:31:07.926Z,220
2016-07-10T12:32:07.953Z,215
2016-07-10T12:33:07.971Z,210
2016-07-10T12:34:08.004Z,215
2016-07-10T12:35:08.022Z,225
2016-07-10T12:36:08.063Z,230
2016-07-10T12:37:08.071Z,230
2016-07-10T12:38:08.119Z,225
2016-07-10T12:39:08.129Z,210
2016-07-10T12:40:08.171Z,200
2016-07-10T12:41:08.184Z,195
2016-07-10T12:42:08.222Z,195
2016-07-10T12:43:08.236Z,195
2016-07-10T12:44:08.271Z,195
2016-07-10T12:45:08.293Z,195
2016-07-10T12:46:08.328Z,190
2016-07-10T12:47:08.355Z,190
2016-07-10T12:48:08.377Z,190
2016-07-10T12:49:08.400Z,200
2016-07-10T12:50:08.426Z,200
2016-07-10T12:51:08.466Z,220
2016-07-10T12:52:08.488Z,230
2016-07-10T12:53:08.513Z,235
2016-07-10T12:54:08.539Z,295
2016-07-10T12:55:08.577Z,320
2016-07-10T12:56:08.590Z,325
2016-07-10T12:57:08.625Z,300
2016-07-10T12:58:08.649Z,255
2016-07-10T12:59:08.675Z,280
2016-07-10T13:00:08.698Z,290
2016-07-10T13:02:08.732Z,260
2016-07-10T13:03:08.750Z,275
2016-07-10T13:04:08.782Z,255
2016-07-10T13:05:08.808Z,245
2016-07-10T13:06:08.848Z,270
2016-07-10T13:07:08.860Z,290
2016-07-10T13:08:08.902Z,310
2016-07-10T13:09:08.916Z,330
2016-07-10T13:10:08.959Z,330
2016-07-10T13:11:08.973Z,330
2016-07-10T13:12:09.017Z,330
2016-07-10T13:13:09.022Z,325
2016-07-10T13:14:09.056Z,325
2016-07-10T13:15:09.091Z,330
2016-07-10T13:16:09.112Z,330
2016-07-10T13:17:09.133Z,330
2016-07-10T13:18:09.161Z,330
2016-07-10T13:19:09.223Z,330
2016-07-10T13:20:09.222Z,325
2016-07-10T13:21:09.258Z,330
2016-07-10T13:22:09.285Z,310
2016-07-10T13:23:09.318Z,270
2016-07-10T13:24:09.327Z,235
2016-07-10T13:25:09.365Z,205
2016-07-10T13:26:09.397Z,195
2016-07-10T13:27:09.404Z,190
2016-07-10T13:28:09.438Z,190
2016-07-10T13:29:09.463Z,185
2016-07-10T13:30:09.508Z,190
2016-07-10T13:31:09.520Z,185
2016-07-10T13:32:09.557Z,180
2016-07-10T13:33:09.579Z,180
2016-07-10T13:34:09.608Z,180
2016-07-10T13:35:09.636Z,185
2016-07-10T13:36:09.658Z,195
2016-07-10T13:37:09.679Z,200
2016-07-10T13:38:09.720Z,195
2016-07-10T13:39:09.739Z,200
2016-07-10T13:40:09.783Z,210
2016-07-10T13:41:09.792Z,260
2016-07-10T13:42:09.824Z,230
2016-07-10T13:43:09.865Z,230
2016-07-10T13:44:09.888Z,235
2016-07-10T13:45:09.909Z,210
2016-07-10T13:46:09.932Z,205
2016-07-10T13:47:09.949Z,285
2016-07-10T13:48:09.983Z,305
2016-07-10T13:49:10.017Z,300
2016-07-10T13:50:10.043Z,300
2016-07-10T13:51:10.063Z,270
2016-07-10T13:52:10.097Z,300
2016-07-10T13:53:10.114Z,300
2016-07-10T13:54:10.158Z,300
2016-07-10T13:55:10.189Z,305
2016-07-10T13:56:10.194Z,305
2016-07-10T13:57:10.233Z,300
2016-07-10T13:58:10.251Z,300
2016-07-10T13:59:10.281Z,290
2016-07-10T14:00:10.329Z,285
2016-07-10T14:01:10.347Z,285
2016-07-10T14:02:10.364Z,225
2016-07-10T14:03:10.392Z,185
2016-07-10T14:04:10.428Z,275
2016-07-10T14:05:10.445Z,280
2016-07-10T14:06:10.478Z,275